Time;durP1;ratioP1;P1;durP2;ratioP2;P2;SDS_P1;SDS_P2;PMS_P1;PMS_P2;Temp;Humidity;BMP_temperature;BMP_pressure;BME280_temperature;BME280_humidity;BME280_pressure;Samples;Min_cycle;Max_cycle;Signal;HPM_P1;HPM_P2
2022/10/17 00:01:09;;;;;;;7.63;2.13;;;12.80;99.90;;;;;;5033496;28;20041;-83
2022/10/17 00:03:36;;;;;;;5.47;1.90;;;12.80;99.90;;;;;;5017621;28;20120;-83
2022/10/17 00:06:13;;;;;;;8.07;1.55;;;12.90;99.90;;;;;;5036060;28;20049;-83
2022/10/17 00:08:40;;;;;;;5.45;1.27;;;13.00;99.90;;;;;;5034967;28;20045;-83
2022/10/17 00:11:11;;;;;;;4.25;1.52;;;13.00;99.90;;;;;;5036621;28;20445;-83
2022/10/17 00:13:37;;;;;;;6.78;1.88;;;13.00;99.90;;;;;;5040951;28;20162;-83
2022/10/17 00:16:03;;;;;;;5.38;2.30;;;13.10;99.90;;;;;;5041421;28;20072;-83
2022/10/17 00:18:29;;;;;;;4.07;1.30;;;13.00;99.90;;;;;;5034027;28;20037;-83
2022/10/17 00:20:55;;;;;;;5.78;1.75;;;13.00;99.90;;;;;;5017381;28;20041;-83
2022/10/17 00:23:20;;;;;;;4.30;1.50;;;13.00;99.90;;;;;;5017356;28;20053;-83
2022/10/17 00:25:46;;;;;;;4.57;1.38;;;13.00;99.90;;;;;;5033771;28;20049;-83
2022/10/17 00:28:13;;;;;;;3.40;1.60;;;12.90;99.90;;;;;;5018766;28;20065;-83
2022/10/17 00:30:40;;;;;;;6.20;1.70;;;12.90;99.90;;;;;;5030729;28;20406;-83
2022/10/17 00:33:06;;;;;;;2.20;1.48;;;12.90;99.90;;;;;;5036188;28;20042;-83
2022/10/17 00:35:31;;;;;;;3.67;1.58;;;12.90;99.90;;;;;;5012114;28;20037;-83
2022/10/17 00:37:57;;;;;;;4.28;1.70;;;12.90;99.90;;;;;;5037116;28;20037;-83
2022/10/17 00:40:23;;;;;;;3.55;2.17;;;12.90;99.90;;;;;;5020085;28;20048;-83
2022/10/17 00:42:51;;;;;;;6.70;1.70;;;12.90;99.90;;;;;;5030604;28;20056;-83
2022/10/17 00:45:20;;;;;;;2.58;1.50;;;13.80;99.90;;;;;;5053265;28;20542;-83
2022/10/17 00:47:53;;;;;;;4.85;2.45;;;12.90;99.90;;;;;;5038664;28;20056;-83
2022/10/17 00:50:19;;;;;;;4.97;1.98;;;12.90;99.90;;;;;;5021411;28;20042;-83
2022/10/17 00:52:47;;;;;;;7.13;2.75;;;12.90;99.90;;;;;;5033532;28;20128;-83
2022/10/17 00:55:24;;;;;;;3.60;1.70;;;13.00;99.90;;;;;;5033163;28;20548;-83
2022/10/17 00:57:50;;;;;;;5.72;2.38;;;12.90;99.90;;;;;;5016782;28;20044;-83
2022/10/17 01:00:17;;;;;;;4.10;2.58;;;12.90;99.90;;;;;;5042166;28;20449;-83
2022/10/17 01:02:43;;;;;;;4.72;2.50;;;12.90;99.90;;;;;;5036476;28;20044;-83
2022/10/17 01:05:10;;;;;;;4.07;1.90;;;12.90;99.90;;;;;;5053242;28;20402;-83
2022/10/17 01:07:38;;;;;;;6.22;2.03;;;12.90;99.90;;;;;;5028271;28;20056;-83
2022/10/17 01:10:06;;;;;;;5.28;2.08;;;12.90;99.90;;;;;;5032770;28;20041;-83
2022/10/17 01:12:42;;;;;;;6.97;2.13;;;12.90;99.90;;;;;;5022026;28;20064;-83
2022/10/17 01:15:29;;;;;;;3.00;2.00;;;12.90;99.90;;;;;;5033825;28;20040;-83
2022/10/17 01:18:23;;;;;;;6.53;2.50;;;12.90;99.90;;;;;;5038042;28;20048;-83
2022/10/17 01:21:21;;;;;;;4.15;2.10;;;13.00;99.90;;;;;;5048498;28;20075;-83
2022/10/17 01:24:17;;;;;;;7.28;2.30;;;13.00;99.90;;;;;;4999005;28;20044;-83
2022/10/17 01:27:07;;;;;;;3.38;1.90;;;13.00;99.90;;;;;;5053489;28;20059;-83
2022/10/17 01:29:48;;;;;;;5.25;2.22;;;13.10;99.90;;;;;;5035779;28;20052;-83
2022/10/17 01:32:23;;;;;;;5.35;2.05;;;13.00;99.90;;;;;;5034123;28;20045;-83
2022/10/17 01:35:29;;;;;;;6.15;2.15;;;13.10;99.90;;;;;;5025217;28;20037;-83
2022/10/17 01:38:34;;;;;;;7.38;2.20;;;13.10;99.90;;;;;;5014981;28;20083;-83
2022/10/17 01:41:06;;;;;;;8.40;2.33;;;13.10;99.90;;;;;;5008982;28;20048;-83
2022/10/17 01:43:39;;;;;;;6.07;2.10;;;13.10;99.90;;;;;;5051344;28;20041;-83
2022/10/17 01:46:09;;;;;;;3.20;2.13;;;13.00;99.90;;;;;;5052215;28;20049;-83
2022/10/17 01:48:36;;;;;;;5.85;2.42;;;13.00;99.90;;;;;;5050471;28;20534;-83
2022/10/17 01:51:18;;;;;;;5.30;2.00;;;13.00;99.90;;;;;;5047791;28;20086;-83
2022/10/17 01:54:07;;;;;;;5.03;2.92;;;12.90;99.90;;;;;;5038504;28;20049;-83
2022/10/17 01:56:35;;;;;;;4.22;1.92;;;12.90;99.90;;;;;;5032397;28;20056;-83
2022/10/17 01:59:10;;;;;;;5.00;2.20;;;12.90;99.90;;;;;;5000014;28;20499;-83
2022/10/17 02:01:38;;;;;;;7.25;2.30;;;12.90;99.90;;;;;;5033978;28;20049;-83
2022/10/17 02:04:06;;;;;;;4.32;2.20;;;12.90;99.90;;;;;;5040553;28;20055;-83
2022/10/17 02:06:36;;;;;;;5.07;2.33;;;12.80;99.90;;;;;;5031024;28;20057;-83
2022/10/17 02:09:15;;;;;;;4.70;2.10;;;12.80;99.90;;;;;;5032689;28;20514;-83
2022/10/17 02:11:42;;;;;;;6.38;2.35;;;12.80;99.90;;;;;;5043511;28;20041;-83
2022/10/17 02:14:11;;;;;;;5.10;2.45;;;12.80;99.90;;;;;;5028055;28;20048;-83
2022/10/17 02:16:58;;;;;;;7.45;2.47;;;12.80;99.90;;;;;;5038818;28;20495;-83
2022/10/17 02:19:32;;;;;;;3.38;1.98;;;12.80;99.90;;;;;;5035094;28;20045;-83
2022/10/17 02:22:34;;;;;;;3.90;2.00;;;12.80;99.90;;;;;;5050253;28;20498;-83
2022/10/17 02:25:06;;;;;;;5.55;2.45;;;12.80;99.90;;;;;;5052550;28;20052;-83
2022/10/17 02:27:52;;;;;;;3.83;2.80;;;12.80;99.90;;;;;;5043103;28;20061;-83
2022/10/17 02:30:41;;;;;;;5.53;2.60;;;12.80;99.90;;;;;;5035104;28;20053;-83
2022/10/17 02:33:13;;;;;;;6.68;2.85;;;12.80;99.90;;;;;;5054038;28;20068;-83
2022/10/17 02:35:44;;;;;;;5.38;2.70;;;12.80;99.90;;;;;;5046771;28;20039;-83
2022/10/17 02:38:11;;;;;;;4.53;2.65;;;12.80;99.90;;;;;;5054652;28;20045;-83
2022/10/17 02:40:39;;;;;;;4.30;2.40;;;12.90;99.90;;;;;;5055841;28;20059;-82
2022/10/17 02:43:05;;;;;;;3.88;2.67;;;12.90;99.90;;;;;;5046590;23;20045;-83
2022/10/17 02:45:34;;;;;;;4.93;3.15;;;12.80;99.90;;;;;;5055371;28;20106;-83
2022/10/17 02:48:29;;;;;;;4.72;2.78;;;12.90;99.90;;;;;;5055076;28;20041;-83
2022/10/17 02:51:06;;;;;;;4.07;2.63;;;12.90;99.90;;;;;;5075745;28;20049;-83
2022/10/17 02:53:36;;;;;;;;;;;12.80;99.90;;;;;;5055867;28;20049;-83
2022/10/17 02:56:10;;;;;;;7.93;2.70;;;12.90;99.90;;;;;;5088192;28;19956;-83
2022/10/17 02:58:37;;;;;;;4.00;2.70;;;12.80;99.90;;;;;;5049203;28;20076;-85
2022/10/17 03:01:04;;;;;;;6.28;3.10;;;12.80;99.90;;;;;;5054705;28;20045;-84
2022/10/17 03:03:31;;;;;;;5.88;3.45;;;12.80;99.90;;;;;;5038897;28;20041;-85
2022/10/17 03:05:57;;;;;;;4.80;3.63;;;12.80;99.90;;;;;;5055059;28;20041;-84
2022/10/17 03:08:23;;;;;;;5.55;3.25;;;12.80;99.90;;;;;;5054977;28;20403;-85
2022/10/17 03:10:49;;;;;;;6.90;3.25;;;12.80;99.90;;;;;;5054560;28;20048;-84
2022/10/17 03:13:15;;;;;;;6.32;3.70;;;12.80;99.90;;;;;;5038713;28;20368;-83
2022/10/17 03:15:41;;;;;;;8.35;3.85;;;12.80;99.90;;;;;;5054647;28;20063;-82
2022/10/17 03:18:07;;;;;;;5.72;2.97;;;12.80;99.90;;;;;;5038127;28;20041;-83
2022/10/17 03:20:33;;;;;;;5.97;3.50;;;12.80;99.90;;;;;;5054585;28;20036;-83
2022/10/17 03:22:58;;;;;;;6.72;3.58;;;12.90;99.90;;;;;;5054081;28;20415;-83
2022/10/17 03:25:24;;;;;;;9.95;4.00;;;12.80;99.90;;;;;;5051166;28;20052;-83
2022/10/17 03:27:50;;;;;;;7.97;4.03;;;12.80;99.90;;;;;;5052193;28;20502;-83
2022/10/17 03:30:17;;;;;;;7.07;3.53;;;12.80;99.90;;;;;;5054227;28;20095;-83
2022/10/17 03:32:43;;;;;;;6.60;3.78;;;12.80;99.90;;;;;;5087960;28;20400;-83
2022/10/17 03:35:09;;;;;;;8.38;4.03;;;12.80;99.90;;;;;;5037346;28;20037;-83
2022/10/17 03:37:34;;;;;;;6.55;3.53;;;12.70;99.90;;;;;;5033545;28;20038;-83
2022/10/17 03:40:00;;;;;;;6.63;3.92;;;12.80;99.90;;;;;;5035646;28;20038;-83
2022/10/17 03:42:26;;;;;;;10.60;3.67;;;12.70;99.90;;;;;;5072749;28;20055;-83
2022/10/17 03:44:52;;;;;;;8.27;3.95;;;12.80;99.90;;;;;;5052268;28;20049;-83
2022/10/17 03:47:17;;;;;;;6.85;4.25;;;12.80;99.90;;;;;;5054199;28;20103;-83
2022/10/17 03:49:43;;;;;;;7.57;4.15;;;12.80;99.90;;;;;;5054410;28;20082;-83
2022/10/17 03:52:12;;;;;;;7.80;4.60;;;12.70;99.90;;;;;;5054327;28;20052;-83
2022/10/17 03:54:38;;;;;;;8.48;4.75;;;12.80;99.90;;;;;;5037930;28;20079;-83
2022/10/17 03:57:03;;;;;;;8.70;4.47;;;12.80;99.90;;;;;;5037444;28;20448;-83
2022/10/17 03:59:30;;;;;;;8.82;4.35;;;12.70;99.90;;;;;;5020549;28;20033;-83
2022/10/17 04:01:55;;;;;;;8.73;4.70;;;12.70;99.90;;;;;;5038048;28;20060;-83
2022/10/17 04:04:21;;;;;;;6.25;3.80;;;12.70;99.90;;;;;;5054082;28;20037;-83
2022/10/17 04:06:47;;;;;;;7.68;4.28;;;12.70;99.90;;;;;;5054283;28;20040;-83
2022/10/17 04:09:13;;;;;;;7.05;4.30;;;12.80;99.90;;;;;;5037145;28;20494;-83
2022/10/17 04:11:38;;;;;;;7.32;4.28;;;12.80;99.90;;;;;;5036998;28;20080;-83
2022/10/17 04:14:05;;;;;;;9.02;4.38;;;12.80;99.90;;;;;;5054827;28;20387;-83
2022/10/17 04:16:30;;;;;;;7.65;4.55;;;12.80;99.90;;;;;;5053616;28;20048;-83
2022/10/17 04:18:58;;;;;;;10.75;5.22;;;12.90;99.90;;;;;;5086929;28;20033;-83
2022/10/17 04:21:25;;;;;;;8.23;4.50;;;12.90;99.90;;;;;;5037194;28;20044;-83
2022/10/17 04:23:59;;;;;;;7.50;4.22;;;12.90;99.90;;;;;;5061801;28;20058;-83
2022/10/17 04:26:26;;;;;;;7.15;4.32;;;12.90;99.90;;;;;;5052698;28;20044;-83
2022/10/17 04:28:52;;;;;;;7.80;4.15;;;12.90;99.90;;;;;;5053478;28;20040;-83
2022/10/17 04:31:18;;;;;;;6.95;4.53;;;13.00;99.90;;;;;;5052838;28;20048;-83
2022/10/17 04:33:47;;;;;;;8.15;4.68;;;13.00;99.90;;;;;;5050161;28;20509;-83
2022/10/17 04:36:15;;;;;;;7.97;3.63;;;13.10;99.90;;;;;;5037071;28;20041;-83
2022/10/17 04:38:41;;;;;;;8.48;4.47;;;13.10;99.90;;;;;;5033371;28;20065;-83
2022/10/17 04:41:11;;;;;;;7.38;4.65;;;13.10;99.90;;;;;;5030570;28;20125;-83
2022/10/17 04:43:38;;;;;;;9.00;5.15;;;13.10;99.90;;;;;;5055740;28;20052;-83
2022/10/17 04:46:08;;;;;;;7.00;4.05;;;13.20;99.90;;;;;;5020197;28;20045;-83
2022/10/17 04:48:34;;;;;;;11.95;4.80;;;13.20;99.90;;;;;;5052935;28;20047;-82
2022/10/17 04:51:02;;;;;;;9.18;4.80;;;13.30;99.90;;;;;;5040468;28;20363;-82
2022/10/17 04:53:30;;;;;;;7.97;4.82;;;13.30;99.90;;;;;;5050695;28;20029;-83
2022/10/17 04:55:56;;;;;;;10.77;5.88;;;13.40;99.90;;;;;;5053006;28;20036;-82
2022/10/17 04:58:22;;;;;;;7.35;4.07;;;13.50;99.90;;;;;;5032992;28;20044;-82
2022/10/17 05:00:48;;;;;;;9.25;5.63;;;13.50;99.90;;;;;;5050056;28;21450;-83
2022/10/17 05:03:14;;;;;;;7.80;4.85;;;13.60;99.90;;;;;;5052804;28;20431;-83
2022/10/17 05:05:41;;;;;;;10.70;4.82;;;13.60;99.90;;;;;;5051851;28;20040;-83
2022/10/17 05:08:09;;;;;;;10.38;5.15;;;13.70;99.90;;;;;;5036355;28;20376;-83
2022/10/17 05:10:36;;;;;;;7.95;5.07;;;13.70;99.90;;;;;;5036122;28;20059;-83
2022/10/17 05:13:02;;;;;;;10.90;5.22;;;13.70;99.90;;;;;;5052569;28;20419;-83
2022/10/17 05:15:28;;;;;;;8.52;4.57;;;13.80;99.90;;;;;;5035900;28;20043;-83
2022/10/17 05:17:55;;;;;;;7.20;4.47;;;13.80;99.90;;;;;;5052593;28;20036;-83
2022/10/17 05:20:20;;;;;;;9.48;4.60;;;13.80;99.90;;;;;;5052695;28;20045;-83
2022/10/17 05:22:46;;;;;;;9.80;5.05;;;13.80;99.90;;;;;;5052964;28;20040;-83
2022/10/17 05:25:12;;;;;;;9.82;5.28;;;13.80;99.90;;;;;;5052612;28;20498;-83
2022/10/17 05:27:37;;;;;;;9.27;4.82;;;13.80;99.90;;;;;;5036007;28;20048;-83
2022/10/17 05:30:04;;;;;;;8.75;4.88;;;13.70;99.90;;;;;;5035795;28;20483;-83
2022/10/17 05:32:30;;;;;;;8.50;4.45;;;13.70;99.90;;;;;;5052743;28;20124;-83
2022/10/17 05:34:55;;;;;;;7.60;4.60;;;13.70;99.90;;;;;;5052580;28;20069;-83
2022/10/17 05:37:21;;;;;;;8.45;4.78;;;13.70;99.90;;;;;;5052314;28;20063;-83
2022/10/17 05:39:47;;;;;;;7.72;4.75;;;13.70;99.90;;;;;;5052420;28;20293;-83
2022/10/17 05:42:13;;;;;;;8.35;5.20;;;13.60;99.90;;;;;;5036683;28;20053;-83
2022/10/17 05:44:40;;;;;;;8.90;4.32;;;13.60;99.90;;;;;;5071114;28;20079;-83
2022/10/17 05:47:06;;;;;;;8.10;4.68;;;13.60;99.90;;;;;;5053084;28;20048;-83
2022/10/17 05:49:32;;;;;;;8.75;4.20;;;13.70;99.90;;;;;;5051989;28;20037;-82
2022/10/17 05:51:58;;;;;;;13.07;5.20;;;13.60;99.90;;;;;;5035679;28;20506;-82
2022/10/17 05:54:24;;;;;;;8.80;5.40;;;13.60;99.90;;;;;;5035813;28;20037;-82
2022/10/17 05:56:54;;;;;;;8.50;5.25;;;13.70;99.90;;;;;;5019172;28;20037;-82
2022/10/17 05:59:20;;;;;;;11.32;6.15;;;13.70;99.90;;;;;;5031707;28;20094;-82
2022/10/17 06:01:46;;;;;;;7.70;5.03;;;13.70;99.90;;;;;;5052152;28;20525;-83
2022/10/17 06:04:11;;;;;;;8.75;4.30;;;13.70;99.90;;;;;;5036251;28;20080;-83
2022/10/17 06:06:39;;;;;;;5.88;3.88;;;13.70;99.90;;;;;;5036562;28;20037;-83
2022/10/17 06:09:05;;;;;;;8.25;3.95;;;13.70;99.90;;;;;;5056220;28;20048;-83
2022/10/17 06:11:31;;;;;;;7.50;4.25;;;13.70;99.90;;;;;;5056966;28;20502;-83
2022/10/17 06:13:56;;;;;;;8.45;4.88;;;13.70;99.90;;;;;;5052122;28;20037;-83
2022/10/17 06:16:22;;;;;;;7.43;4.28;;;13.70;99.90;;;;;;5053900;28;20068;-83
2022/10/17 06:18:48;;;;;;;6.32;3.75;;;13.80;99.90;;;;;;5049345;28;20099;-83
2022/10/17 06:21:17;;;;;;;8.07;3.92;;;13.80;99.90;;;;;;5053681;28;20044;-83
2022/10/17 06:23:43;;;;;;;6.88;3.60;;;13.90;99.90;;;;;;5052021;28;20087;-83
2022/10/17 06:26:09;;;;;;;8.35;4.18;;;14.00;99.90;;;;;;5035310;28;20076;-83
2022/10/17 06:28:35;;;;;;;10.07;3.92;;;13.90;99.90;;;;;;5035027;28;20036;-83
2022/10/17 06:31:06;;;;;;;6.72;4.18;;;14.10;99.90;;;;;;5052168;28;21775;-83
2022/10/17 06:33:31;;;;;;;7.80;4.32;;;14.20;99.90;;;;;;5051843;28;20041;-83
2022/10/17 06:35:57;;;;;;;5.95;3.58;;;14.30;99.90;;;;;;5052379;28;20037;-82
2022/10/17 06:38:23;;;;;;;9.25;4.72;;;14.40;99.90;;;;;;5048032;28;20402;-82
2022/10/17 06:40:49;;;;;;;8.27;4.40;;;14.40;99.90;;;;;;5035050;28;20044;-82
2022/10/17 06:43:15;;;;;;;7.43;3.85;;;14.60;99.90;;;;;;5033962;28;20075;-83
2022/10/17 06:45:41;;;;;;;8.00;3.95;;;14.60;99.90;;;;;;5034077;28;20073;-83
2022/10/17 06:48:07;;;;;;;7.35;3.92;;;14.60;99.90;;;;;;5035096;28;20037;-83
2022/10/17 06:50:34;;;;;;;8.05;3.90;;;14.70;99.90;;;;;;5052130;28;20094;-83
2022/10/17 06:52:59;;;;;;;6.32;3.60;;;14.70;99.90;;;;;;5034617;28;20055;-83
2022/10/17 06:55:25;;;;;;;8.23;4.03;;;14.80;99.90;;;;;;5027297;28;20045;-83
2022/10/17 06:57:56;;;;;;;6.90;3.47;;;14.90;99.90;;;;;;5019708;28;20037;-82
2022/10/17 07:00:22;;;;;;;6.75;3.97;;;14.90;99.90;;;;;;5055654;28;20037;-83
2022/10/17 07:02:48;;;;;;;5.68;3.28;;;15.00;99.90;;;;;;5050682;28;20495;-83
2022/10/17 07:05:14;;;;;;;7.03;3.63;;;15.10;99.90;;;;;;5034008;28;20048;-83
2022/10/17 07:07:40;;;;;;;9.20;3.58;;;15.20;99.90;;;;;;5051703;28;20037;-83
2022/10/17 07:10:08;;;;;;;6.82;3.85;;;15.40;99.90;;;;;;5018078;28;20049;-83
2022/10/17 07:12:34;;;;;;;9.50;3.10;;;15.50;99.90;;;;;;5037935;28;20471;-83
2022/10/17 07:15:02;;;;;;;7.45;3.17;;;15.80;99.90;;;;;;5053787;28;20513;-83
2022/10/17 07:17:29;;;;;;;7.10;3.90;;;15.80;99.90;;;;;;5066376;28;20115;-83
2022/10/17 07:19:55;;;;;;;7.35;4.00;;;16.00;99.90;;;;;;5055074;28;20073;-83
2022/10/17 07:22:20;;;;;;;6.68;3.00;;;16.10;99.90;;;;;;5070310;28;20384;-83
2022/10/17 07:24:46;;;;;;;7.57;3.65;;;16.30;99.90;;;;;;5053822;28;20058;-83
2022/10/17 07:27:13;;;;;;;9.10;3.38;;;16.50;99.90;;;;;;5053844;28;20467;-83
2022/10/17 07:29:39;;;;;;;5.85;3.10;;;17.00;99.90;;;;;;5037044;28;20048;-83
2022/10/17 07:32:07;;;;;;;6.45;3.53;;;17.40;99.90;;;;;;5051439;28;20037;-83
2022/10/17 07:34:34;;;;;;;6.05;3.15;;;17.50;99.90;;;;;;5044859;28;20394;-83
2022/10/17 07:37:00;;;;;;;5.28;3.05;;;17.50;99.90;;;;;;5044223;28;20037;-83
2022/10/17 07:39:26;;;;;;;7.32;2.72;;;17.40;99.90;;;;;;5036215;28;20071;-83
2022/10/17 07:41:52;;;;;;;5.07;2.67;;;17.40;99.90;;;;;;5053832;28;20091;-83
2022/10/17 07:44:17;;;;;;;7.60;2.95;;;17.40;99.90;;;;;;5032862;28;161732;-83
2022/10/17 07:46:43;;;;;;;5.25;3.15;;;17.30;99.90;;;;;;5054136;28;20560;-83
2022/10/17 07:49:09;;;;;;;7.95;3.47;;;17.30;99.90;;;;;;5057879;28;20067;-83
2022/10/17 07:51:34;;;;;;;6.15;3.15;;;17.30;99.90;;;;;;5054430;28;20430;-83
2022/10/17 07:54:00;;;;;;;5.30;3.17;;;17.40;99.90;;;;;;5054216;28;20502;-83
2022/10/17 07:56:28;;;;;;;8.13;2.95;;;17.50;99.90;;;;;;5051152;28;20060;-83
2022/10/17 07:58:55;;;;;;;5.38;3.08;;;17.60;99.90;;;;;;5043565;28;20037;-83
2022/10/17 08:01:21;;;;;;;6.22;3.28;;;17.60;99.90;;;;;;5053871;28;20506;-82
2022/10/17 08:03:50;;;;;;;4.55;3.08;;;17.60;99.90;;;;;;5053475;28;20033;-82
2022/10/17 08:06:16;;;;;;;5.95;2.90;;;17.60;99.90;;;;;;5037655;28;20079;-81
2022/10/17 08:08:43;;;;;;;5.20;2.72;;;17.60;99.90;;;;;;5055507;28;20045;-81
2022/10/17 08:11:12;;;;;;;7.88;4.05;;;17.50;99.90;;;;;;5039215;28;20037;-81
2022/10/17 08:13:39;;;;;;;6.00;3.40;;;17.50;99.90;;;;;;5056075;28;20040;-82
2022/10/17 08:16:11;;;;;;;5.60;2.92;;;17.50;99.90;;;;;;5055634;28;20041;-82
2022/10/17 08:18:39;;;;;;;7.68;3.53;;;17.50;99.90;;;;;;5058209;28;20095;-82
2022/10/17 08:21:20;;;;;;;5.13;3.20;;;17.40;99.90;;;;;;5041054;28;20395;-83
2022/10/17 08:23:52;;;;;;;5.60;3.40;;;17.40;99.90;;;;;;5058358;28;20041;-84
2022/10/17 08:26:18;;;;;;;6.53;3.22;;;17.40;99.90;;;;;;5058388;28;20045;-83
2022/10/17 08:28:48;;;;;;;6.28;2.90;;;17.50;99.90;;;;;;5041580;28;20040;-83
2022/10/17 08:31:19;;;;;;;5.55;3.10;;;17.40;99.90;;;;;;5058530;28;20045;-82
2022/10/17 08:33:46;;;;;;;6.43;3.35;;;17.40;99.90;;;;;;5043012;28;20199;-82
2022/10/17 08:36:15;;;;;;;4.88;2.78;;;17.40;99.90;;;;;;5075760;28;20047;-82
2022/10/17 08:38:42;;;;;;;6.68;3.90;;;17.40;99.90;;;;;;5064244;28;20037;-82
2022/10/17 08:41:37;;;;;;;4.82;2.95;;;17.40;99.90;;;;;;5042067;28;20047;-82
2022/10/17 08:44:12;;;;;;;6.35;3.30;;;17.40;99.90;;;;;;5047421;28;20492;-82
2022/10/17 08:46:46;;;;;;;6.80;3.70;;;17.40;99.90;;;;;;5040442;28;20052;-83
2022/10/17 08:50:24;;;;;;;7.45;3.40;;;17.40;99.90;;;;;;5057580;28;20033;-83
2022/10/17 08:52:55;;;;;;;8.27;3.25;;;17.30;99.90;;;;;;4950852;28;20070;-82
2022/10/17 08:55:36;;;;;;;9.68;3.90;;;17.40;99.90;;;;;;4948047;28;20511;-82
2022/10/17 08:58:02;;;;;;;7.25;3.83;;;17.40;99.90;;;;;;5028647;28;20056;-82
2022/10/17 09:00:29;;;;;;;6.68;3.47;;;17.40;99.90;;;;;;5036373;28;20040;-82
2022/10/17 09:03:20;;;;;;;7.90;4.05;;;17.40;99.90;;;;;;5033320;28;20064;-82
2022/10/17 09:05:54;;;;;;;6.53;3.72;;;17.30;99.90;;;;;;5057974;28;20041;-85
2022/10/17 09:08:34;;;;;;;6.28;3.70;;;17.30;99.90;;;;;;5082172;28;20045;-85
2022/10/17 09:11:23;;;;;;;7.05;4.07;;;17.20;99.90;;;;;;5036578;28;20386;-85
2022/10/17 09:14:06;;;;;;;7.55;3.80;;;17.20;99.90;;;;;;5003095;28;20040;-85
2022/10/17 09:16:53;;;;;;;5.40;3.47;;;17.20;99.90;;;;;;5053533;28;20044;-85
2022/10/17 09:19:31;;;;;;;6.95;3.42;;;17.20;99.90;;;;;;5036374;28;20041;-85
2022/10/17 09:22:13;;;;;;;5.72;3.40;;;17.20;99.90;;;;;;5053150;28;20483;-81
2022/10/17 09:24:44;;;;;;;6.85;3.55;;;17.20;99.90;;;;;;5053323;28;20348;-81
2022/10/17 09:27:30;;;;;;;5.88;3.15;;;17.20;99.90;;;;;;5052756;28;20056;-81
2022/10/17 09:30:17;;;;;;;8.57;3.97;;;17.10;99.90;;;;;;5052871;28;20049;-81
2022/10/17 09:32:46;;;;;;;9.73;4.88;;;17.10;99.90;;;;;;5051994;28;20071;-82
2022/10/17 09:35:13;;;;;;;6.30;3.70;;;17.00;99.90;;;;;;5034049;28;20045;-81
2022/10/17 09:37:40;;;;;;;6.43;3.45;;;17.00;99.90;;;;;;5027716;28;20128;-82
2022/10/17 09:40:15;;;;;;;7.53;3.90;;;16.90;99.90;;;;;;5031880;28;20037;-82
2022/10/17 09:42:43;;;;;;;6.38;3.45;;;16.90;99.90;;;;;;5038539;28;20040;-82
2022/10/17 09:45:25;;;;;;;5.07;3.10;;;16.90;99.90;;;;;;5052071;28;20390;-82
2022/10/17 09:48:23;;;;;;;6.65;3.60;;;16.80;99.90;;;;;;5051735;28;20492;-82
2022/10/17 09:50:49;;;;;;;6.00;3.45;;;16.80;99.90;;;;;;5051202;28;20041;-82
2022/10/17 09:53:22;;;;;;;5.22;3.13;;;16.70;99.90;;;;;;5051767;28;20068;-81
2022/10/17 09:55:56;;;;;;;6.55;3.30;;;16.70;99.90;;;;;;5040006;28;20441;-81
2022/10/17 09:58:23;;;;;;;6.53;3.58;;;16.70;99.90;;;;;;5052003;28;20045;-81
2022/10/17 10:00:48;;;;;;;7.53;2.80;;;16.70;99.90;;;;;;5051732;28;20041;-81
2022/10/17 10:03:25;;;;;;;6.90;3.17;;;16.60;99.90;;;;;;5034110;28;20045;-81
2022/10/17 10:06:04;;;;;;;8.10;3.95;;;16.60;99.90;;;;;;5045431;28;20454;-81
2022/10/17 10:08:35;;;;;;;5.07;3.22;;;16.60;99.90;;;;;;5028677;28;20387;-81
2022/10/17 10:11:07;;;;;;;8.90;3.63;;;16.60;99.90;;;;;;5081072;28;20045;-81
2022/10/17 10:13:34;;;;;;;8.02;3.80;;;16.60;99.90;;;;;;5050778;28;20033;-81
2022/10/17 10:16:20;;;;;;;5.38;3.35;;;16.60;99.90;;;;;;5035153;28;20045;-81
2022/10/17 10:18:47;;;;;;;4.95;2.95;;;16.60;99.90;;;;;;5034789;28;20041;-80
2022/10/17 10:21:14;;;;;;;5.40;3.05;;;16.60;99.90;;;;;;5051696;28;20040;-81
2022/10/17 10:23:50;;;;;;;5.78;3.25;;;16.60;99.90;;;;;;5051189;28;20048;-81
2022/10/17 10:26:21;;;;;;;;;;;16.70;99.90;;;;;;5032300;28;20042;-81
2022/10/17 10:28:59;;;;;;;6.65;3.03;;;16.70;99.90;;;;;;5032486;28;19917;-81
2022/10/17 10:31:32;;;;;;;5.28;3.30;;;16.70;99.90;;;;;;5051570;28;20048;-83
2022/10/17 10:34:01;;;;;;;5.80;3.38;;;16.70;99.90;;;;;;5038270;28;20098;-82
2022/10/17 10:36:49;;;;;;;7.28;3.30;;;16.80;99.90;;;;;;5051006;28;20391;-82
2022/10/17 10:39:33;;;;;;;4.38;2.58;;;16.80;99.90;;;;;;5035432;28;20037;-82
2022/10/17 10:42:01;;;;;;;13.00;3.92;;;16.80;99.90;;;;;;5034617;28;20045;-82
2022/10/17 10:44:29;;;;;;;4.38;2.33;;;16.80;99.90;;;;;;5051957;28;20057;-82
2022/10/17 10:47:17;;;;;;;4.95;2.92;;;16.80;99.90;;;;;;5039129;28;20076;-82
2022/10/17 10:49:43;;;;;;;5.85;3.40;;;16.80;99.90;;;;;;5055642;28;20527;-82
2022/10/17 10:52:22;;;;;;;5.80;3.45;;;16.90;99.90;;;;;;5057031;28;20032;-82
2022/10/17 10:55:15;;;;;;;6.65;3.03;;;16.90;99.90;;;;;;5058575;28;20037;-81
2022/10/17 10:57:43;;;;;;;6.75;3.03;;;17.00;99.90;;;;;;5054940;28;20029;-81
2022/10/17 11:00:19;;;;;;;4.57;2.88;;;17.00;99.90;;;;;;5054745;28;20495;-81
2022/10/17 11:02:59;;;;;;;8.88;4.10;;;17.00;99.90;;;;;;5054952;28;20036;-82
2022/10/17 11:05:40;;;;;;;12.82;3.72;;;17.00;99.90;;;;;;5067833;28;20099;-82
2022/10/17 11:08:23;;;;;;;5.13;3.17;;;17.00;99.90;;;;;;5074873;28;20037;-81
2022/10/17 11:10:58;;;;;;;6.18;2.90;;;16.90;99.90;;;;;;5064426;28;20041;-81
2022/10/17 11:13:27;;;;;;;5.07;2.83;;;16.90;99.90;;;;;;5053905;28;20037;-81
2022/10/17 11:16:14;;;;;;;5.28;2.80;;;16.80;99.90;;;;;;5053739;28;20045;-81
2022/10/17 11:18:49;;;;;;;8.57;3.88;;;16.80;99.90;;;;;;5042580;28;20411;-82
2022/10/17 11:21:21;;;;;;;5.53;2.50;;;16.90;99.90;;;;;;5071557;28;20050;-81
2022/10/17 11:24:06;;;;;;;6.00;2.97;;;16.90;99.90;;;;;;5071313;28;20096;-81
2022/10/17 11:26:38;;;;;;;5.93;3.05;;;16.90;99.90;;;;;;5063559;28;20043;-81
2022/10/17 11:29:07;;;;;;;6.15;2.78;;;17.00;99.90;;;;;;5061333;28;20052;-81
2022/10/17 11:31:38;;;;;;;4.40;2.55;;;17.10;99.90;;;;;;5067941;28;20079;-81
2022/10/17 11:34:39;;;;;;;7.75;3.15;;;17.10;99.90;;;;;;5070394;28;20075;-82
2022/10/17 11:37:14;;;;;;;5.03;2.60;;;17.10;99.90;;;;;;4983466;28;20046;-82
2022/10/17 11:39:48;;;;;;;3.72;2.22;;;17.10;99.90;;;;;;5059911;28;20491;-81
2022/10/17 11:42:26;;;;;;;4.32;2.40;;;17.20;99.90;;;;;;5037661;28;20134;-82
2022/10/17 11:44:58;;;;;;;7.22;2.80;;;17.20;99.90;;;;;;5054762;28;20061;-84
2022/10/17 11:47:49;;;;;;;4.95;2.28;;;17.20;99.90;;;;;;5060138;28;20041;-84
2022/10/17 11:50:31;;;;;;;6.50;2.83;;;17.10;99.90;;;;;;5059731;28;20398;-84
2022/10/17 11:53:10;;;;;;;4.82;2.92;;;17.00;99.90;;;;;;5053847;28;20048;-84
2022/10/17 11:55:37;;;;;;;6.85;3.17;;;17.00;99.90;;;;;;5054208;28;20128;-84
2022/10/17 11:58:16;;;;;;;4.32;2.40;;;17.00;99.90;;;;;;5052689;28;20399;-84
2022/10/17 12:01:18;;;;;;;4.70;2.70;;;17.20;99.90;;;;;;5053777;28;20624;-84
2022/10/17 12:03:59;;;;;;;7.97;2.67;;;17.40;99.90;;;;;;5053734;28;20041;-86
2022/10/17 12:06:49;;;;;;;5.95;3.30;;;17.60;99.90;;;;;;5054277;28;20045;-86
2022/10/17 12:09:17;;;;;;;5.88;2.65;;;17.60;99.90;;;;;;5053855;28;20048;-81
2022/10/17 12:11:52;;;;;;;4.43;2.42;;;17.70;99.90;;;;;;5053352;28;20044;-81
2022/10/17 12:14:38;;;;;;;4.80;2.80;;;17.70;99.90;;;;;;5054047;28;20051;-81
2022/10/17 12:17:24;;;;;;;3.75;2.25;;;17.70;99.90;;;;;;5036514;28;20037;-81
2022/10/17 12:19:50;;;;;;;4.25;2.38;;;17.60;99.90;;;;;;5053568;28;20044;-81
2022/10/17 12:22:27;;;;;;;3.50;2.10;;;17.50;99.90;;;;;;5037102;28;20403;-81
2022/10/17 12:24:56;;;;;;;7.97;2.30;;;17.40;99.90;;;;;;5053350;28;20123;-81
2022/10/17 12:27:34;;;;;;;5.00;2.08;;;17.30;99.90;;;;;;5054054;28;20037;-81
2022/10/17 12:30:10;;;;;;;5.93;2.65;;;17.20;99.90;;;;;;5054040;28;20131;-81
2022/10/17 12:32:37;;;;;;;4.75;2.33;;;17.10;99.90;;;;;;5036626;28;20044;-81
2022/10/17 12:35:03;;;;;;;4.20;2.00;;;17.00;99.90;;;;;;5053312;28;20045;-82
2022/10/17 12:38:00;;;;;;;3.88;2.22;;;17.00;99.90;;;;;;5054090;28;20032;-81
2022/10/17 12:40:35;;;;;;;;;;;17.00;99.90;;;;;;5037873;28;20176;-81
2022/10/17 12:43:13;;;;;;;4.15;2.47;;;16.90;99.90;;;;;;5086611;28;20378;-81
2022/10/17 12:45:53;;;;;;;3.17;1.58;;;16.80;99.90;;;;;;5053361;28;20045;-81
2022/10/17 12:48:39;;;;;;;3.25;2.00;;;16.80;99.90;;;;;;5060952;28;20097;-81
2022/10/17 12:51:21;;;;;;;3.92;1.90;;;16.60;99.90;;;;;;5026066;28;20407;-81
2022/10/17 12:54:11;;;;;;;3.55;1.75;;;16.60;99.90;;;;;;5052713;28;20119;-84
2022/10/17 12:59:21;;;;;;;4.00;1.83;;;16.50;99.90;;;;;;5071053;28;20514;-84
2022/10/17 13:01:53;;;;;;;4.15;1.90;;;16.50;99.90;;;;;;5072203;28;20056;-85
2022/10/17 13:04:20;;;;;;;3.92;1.95;;;16.50;99.90;;;;;;5038627;28;20184;-85
2022/10/17 13:06:52;;;;;;;4.22;2.10;;;16.50;99.90;;;;;;5080905;28;20127;-84
2022/10/17 13:09:28;;;;;;;4.90;1.63;;;16.50;99.90;;;;;;5053450;28;20048;-84
2022/10/17 13:11:56;;;;;;;4.72;1.55;;;16.50;99.90;;;;;;5036612;28;20150;-83
2022/10/17 13:14:24;;;;;;;2.80;1.52;;;16.50;99.90;;;;;;5035997;28;20127;-83